createdAt,value
2022-08-21T00:00:16.947Z,2.65
2022-08-21T00:02:53.770Z,2.30
2022-08-21T00:05:21.634Z,2.63
2022-08-21T00:07:48.469Z,2.50
2022-08-21T00:10:16.882Z,2.80
2022-08-21T00:12:44.601Z,2.60
2022-08-21T00:15:14.405Z,2.35
2022-08-21T00:17:41.676Z,2.30
2022-08-21T00:20:14.428Z,2.35
2022-08-21T00:22:42.199Z,2.63
2022-08-21T00:25:10.146Z,2.40
2022-08-21T00:27:37.453Z,2.72
2022-08-21T00:30:07.307Z,2.30
2022-08-21T00:32:34.344Z,2.38
2022-08-21T00:35:01.194Z,2.65
2022-08-21T00:37:28.104Z,2.25
2022-08-21T00:39:57.541Z,2.22
2022-08-21T00:42:24.667Z,2.40
2022-08-21T00:44:52.176Z,2.30
2022-08-21T00:47:19.952Z,2.65
2022-08-21T00:49:46.783Z,2.60
2022-08-21T00:52:24.614Z,2.63
2022-08-21T00:54:52.863Z,2.25
2022-08-21T00:57:28.957Z,2.20
2022-08-21T00:59:59.350Z,2.30
2022-08-21T01:02:26.809Z,2.47
2022-08-21T01:04:54.299Z,2.28
2022-08-21T01:07:21.262Z,2.50
2022-08-21T01:09:49.931Z,2.20
2022-08-21T01:12:16.933Z,2.60
2022-08-21T01:14:44.439Z,2.70
2022-08-21T01:17:16.505Z,2.28
2022-08-21T01:19:44.011Z,2.70
2022-08-21T01:22:10.968Z,2.40
2022-08-21T01:24:37.949Z,2.80
2022-08-21T01:27:05.011Z,2.30
2022-08-21T01:29:39.855Z,2.10
2022-08-21T01:32:10.980Z,2.40
2022-08-21T01:34:39.931Z,2.63
2022-08-21T01:37:06.976Z,2.50
2022-08-21T01:39:34.754Z,2.55
2022-08-21T01:42:01.970Z,2.40
2022-08-21T01:44:29.055Z,2.50
2022-08-21T01:46:58.272Z,2.30
2022-08-21T01:49:25.066Z,2.50
2022-08-21T01:51:52.698Z,2.50
2022-08-21T01:55:03.410Z,2.47
2022-08-21T01:57:30.235Z,2.15
2022-08-21T01:59:57.073Z,2.30
2022-08-21T02:02:23.909Z,2.50
2022-08-21T02:04:50.869Z,2.58
2022-08-21T02:07:17.807Z,2.40
2022-08-21T02:09:44.588Z,2.15
2022-08-21T02:12:12.364Z,2.20
2022-08-21T02:14:39.328Z,2.42
2022-08-21T02:17:09.805Z,2.25
2022-08-21T02:19:40.500Z,2.65
2022-08-21T02:22:11.639Z,2.47
2022-08-21T02:24:54.402Z,2.53
2022-08-21T02:27:27.287Z,2.20
2022-08-21T02:29:56.673Z,2.40
2022-08-21T02:32:23.537Z,2.30
2022-08-21T02:34:50.825Z,2.30
2022-08-21T02:37:17.769Z,2.25
2022-08-21T02:39:44.893Z,2.38
2022-08-21T02:42:11.692Z,2.25
2022-08-21T02:44:38.478Z,2.20
2022-08-21T02:47:05.489Z,2.05
2022-08-21T02:49:32.417Z,2.25
2022-08-21T02:51:59.231Z,2.25
2022-08-21T02:54:26.219Z,2.40
2022-08-21T02:56:53.023Z,2.00
2022-08-21T02:59:19.951Z,2.03
2022-08-21T03:01:47.498Z,2.10
2022-08-21T03:04:14.320Z,2.20
2022-08-21T03:06:41.230Z,2.20
2022-08-21T03:09:08.480Z,2.30
2022-08-21T03:11:35.659Z,2.38
2022-08-21T03:14:02.452Z,2.20
2022-08-21T03:16:33.093Z,2.33
2022-08-21T03:19:02.379Z,2.30
2022-08-21T03:21:29.740Z,2.03
2022-08-21T03:23:56.884Z,2.15
2022-08-21T03:26:25.189Z,2.17
2022-08-21T03:28:52.386Z,2.20
2022-08-21T03:31:19.368Z,1.80
2022-08-21T03:33:46.251Z,2.20
2022-08-21T03:36:13.145Z,2.40
2022-08-21T03:38:40.693Z,2.30
2022-08-21T03:41:08.647Z,2.25
2022-08-21T03:43:36.703Z,2.25
2022-08-21T03:46:05.715Z,2.30
2022-08-21T03:48:33.055Z,2.10
2022-08-21T03:51:00.087Z,2.20
2022-08-21T03:53:27.706Z,2.25
2022-08-21T03:55:54.947Z,2.10
2022-08-21T03:58:25.216Z,2.17
2022-08-21T04:00:54.967Z,2.15
2022-08-21T04:03:22.287Z,2.38
2022-08-21T04:05:49.385Z,2.25
2022-08-21T04:08:19.562Z,2.30
2022-08-21T04:10:49.607Z,2.00
2022-08-21T04:13:17.085Z,2.13
2022-08-21T04:15:44.027Z,2.10
2022-08-21T04:18:11.010Z,2.30
2022-08-21T04:20:38.161Z,2.15
2022-08-21T04:23:05.094Z,2.05
2022-08-21T04:25:32.739Z,2.13
2022-08-21T04:28:00.774Z,2.10
2022-08-21T04:30:28.468Z,2.13
2022-08-21T04:32:57.260Z,2.05
2022-08-21T04:35:25.612Z,2.10
2022-08-21T04:37:52.609Z,2.38
2022-08-21T04:40:21.360Z,2.60
2022-08-21T04:42:52.248Z,2.42
2022-08-21T04:45:21.541Z,2.17
2022-08-21T04:47:52.843Z,2.08
2022-08-21T04:50:23.343Z,2.28
2022-08-21T04:53:09.576Z,2.25
2022-08-21T04:55:38.129Z,2.42
2022-08-21T04:58:10.783Z,2.25
2022-08-21T05:00:38.149Z,2.38
2022-08-21T05:03:08.005Z,2.10
2022-08-21T05:05:35.450Z,2.13
2022-08-21T05:08:03.507Z,1.90
2022-08-21T05:10:32.521Z,2.15
2022-08-21T05:13:01.451Z,2.10
2022-08-21T05:15:28.617Z,2.20
2022-08-21T05:18:00.770Z,2.20
2022-08-21T05:20:28.780Z,2.20
2022-08-21T05:22:55.907Z,2.05
2022-08-21T05:25:23.683Z,2.17
2022-08-21T05:27:51.980Z,2.28
2022-08-21T05:30:20.143Z,2.03
2022-08-21T05:32:48.627Z,2.35
2022-08-21T05:35:16.086Z,2.22
2022-08-21T05:37:43.135Z,2.40
2022-08-21T05:40:21.167Z,2.40
2022-08-21T05:42:54.101Z,2.22
2022-08-21T05:45:42.001Z,2.15
2022-08-21T05:48:19.104Z,1.90
2022-08-21T05:50:47.325Z,2.13
2022-08-21T05:53:15.632Z,2.15
2022-08-21T05:55:46.215Z,1.83
2022-08-21T05:58:19.688Z,1.88
2022-08-21T06:00:48.758Z,1.90
2022-08-21T06:03:25.136Z,2.10
2022-08-21T06:05:53.742Z,2.40
2022-08-21T06:08:22.485Z,2.20
2022-08-21T06:10:51.230Z,2.00
2022-08-21T06:13:19.101Z,2.22
2022-08-21T06:15:46.360Z,1.92
2022-08-21T06:18:13.441Z,2.08
2022-08-21T06:20:42.500Z,2.28
2022-08-21T06:23:09.384Z,2.20
2022-08-21T06:25:36.798Z,2.08
2022-08-21T06:28:09.823Z,2.17
2022-08-21T06:30:38.154Z,2.38
2022-08-21T06:33:05.374Z,1.90
2022-08-21T06:35:32.332Z,2.00
2022-08-21T06:37:59.529Z,2.15
2022-08-21T06:40:30.544Z,1.98
2022-08-21T06:43:14.986Z,1.90
2022-08-21T06:45:42.706Z,2.00
2022-08-21T06:48:10.524Z,2.20
2022-08-21T06:50:38.447Z,2.45
2022-08-21T06:53:08.880Z,1.98
2022-08-21T06:55:35.735Z,2.15
2022-08-21T06:58:02.758Z,2.30
2022-08-21T07:00:30.643Z,1.83
2022-08-21T07:02:57.877Z,2.15
2022-08-21T07:05:27.684Z,2.00
2022-08-21T07:07:54.520Z,1.90
2022-08-21T07:10:22.556Z,1.85
2022-08-21T07:13:00.627Z,1.85
2022-08-21T07:15:30.471Z,2.08
2022-08-21T07:17:59.977Z,2.00
2022-08-21T07:20:28.333Z,2.13
2022-08-21T07:22:56.827Z,2.13
2022-08-21T07:25:23.744Z,2.03
2022-08-21T07:27:50.620Z,2.15
2022-08-21T07:30:17.730Z,2.13
2022-08-21T07:32:44.932Z,1.98
2022-08-21T07:35:12.068Z,2.20
2022-08-21T07:37:39.045Z,2.35
2022-08-21T07:40:06.545Z,2.22
2022-08-21T07:42:33.592Z,2.17
2022-08-21T07:45:00.480Z,2.50
2022-08-21T07:47:41.556Z,2.30
2022-08-21T07:50:12.352Z,2.65
2022-08-21T07:52:40.187Z,2.45
2022-08-21T07:55:08.870Z,2.75
2022-08-21T07:57:35.821Z,2.75
2022-08-21T08:00:08.782Z,2.58
2022-08-21T08:02:39.842Z,2.42
2022-08-21T08:05:09.219Z,2.90
2022-08-21T08:07:36.441Z,2.97
2022-08-21T08:10:05.591Z,2.47
2022-08-21T08:12:32.425Z,2.45
2022-08-21T08:15:00.656Z,2.20
2022-08-21T08:17:28.115Z,2.20
2022-08-21T08:19:55.268Z,2.30
2022-08-21T08:22:26.713Z,2.00
2022-08-21T08:24:54.823Z,2.58
2022-08-21T08:27:22.644Z,2.58
2022-08-21T08:29:49.874Z,2.10
2022-08-21T08:32:16.869Z,2.33
2022-08-21T08:34:44.209Z,2.42
2022-08-21T08:37:12.011Z,2.45
2022-08-21T08:39:39.078Z,2.17
2022-08-21T08:42:32.647Z,2.10
2022-08-21T08:45:08.804Z,2.00
2022-08-21T08:47:48.256Z,2.60
2022-08-21T08:50:22.441Z,2.00
2022-08-21T08:53:08.024Z,3.17
2022-08-21T08:55:39.901Z,3.25
2022-08-21T08:58:07.881Z,3.33
2022-08-21T09:00:35.133Z,2.72
2022-08-21T09:03:03.905Z,2.67
2022-08-21T09:05:37.807Z,2.20
2022-08-21T09:08:19.326Z,1.98
2022-08-21T09:10:48.954Z,1.98
2022-08-21T09:13:23.637Z,2.33
2022-08-21T09:16:05.481Z,2.40
2022-08-21T09:18:50.327Z,2.17
2022-08-21T09:21:32.088Z,2.60
2022-08-21T09:24:01.891Z,2.20
2022-08-21T09:27:07.139Z,2.10
2022-08-21T09:32:03.397Z,1.90
2022-08-21T09:34:35.349Z,2.13
2022-08-21T09:37:02.488Z,2.42
2022-08-21T09:39:30.648Z,2.05
2022-08-21T09:42:05.198Z,2.33
2022-08-21T09:44:37.076Z,2.50
2022-08-21T09:47:03.927Z,2.50
2022-08-21T09:49:33.720Z,2.70
2022-08-21T09:52:02.152Z,1.98
2022-08-21T09:54:37.917Z,2.30
2022-08-21T09:57:29.410Z,2.10
2022-08-21T09:59:57.024Z,1.83
2022-08-21T10:02:35.939Z,2.15
2022-08-21T10:05:09.379Z,2.20
2022-08-21T10:07:38.881Z,1.80
2022-08-21T10:10:32.556Z,2.10
2022-08-21T10:13:14.951Z,2.10
2022-08-21T10:16:03.250Z,1.98
2022-08-21T10:18:57.121Z,1.90
2022-08-21T10:21:38.790Z,1.83
2022-08-21T10:24:31.156Z,1.60
2022-08-21T10:27:16.633Z,2.17
2022-08-21T10:29:57.964Z,1.90
2022-08-21T10:32:46.178Z,2.00
2022-08-21T10:35:19.138Z,1.60
2022-08-21T10:38:04.540Z,1.90
2022-08-21T10:40:56.482Z,1.85
2022-08-21T10:43:25.989Z,1.77
2022-08-21T10:46:04.235Z,1.40
2022-08-21T10:48:39.978Z,1.67
2022-08-21T10:51:17.524Z,1.77
2022-08-21T10:54:00.088Z,2.05
2022-08-21T10:56:32.017Z,1.95
2022-08-21T10:59:19.567Z,1.90
2022-08-21T11:01:54.013Z,1.70
2022-08-21T11:04:49.443Z,1.95
2022-08-21T11:07:38.393Z,1.73
2022-08-21T11:10:16.635Z,1.98
2022-08-21T11:12:54.795Z,1.75
2022-08-21T11:15:47.048Z,1.95
2022-08-21T11:18:29.795Z,1.90
2022-08-21T11:21:02.507Z,1.77
2022-08-21T11:23:41.173Z,2.05
2022-08-21T11:26:50.165Z,1.77
2022-08-21T11:29:48.758Z,2.05
2022-08-21T11:32:43.369Z,1.73
2022-08-21T11:35:28.314Z,1.98
2022-08-21T11:37:58.238Z,1.90
2022-08-21T11:40:38.266Z,2.20
2022-08-21T11:43:31.689Z,2.15
2022-08-21T11:46:14.644Z,2.30
2022-08-21T11:48:53.725Z,2.00
2022-08-21T11:51:47.853Z,2.00
2022-08-21T11:54:38.936Z,1.75
2022-08-21T11:57:33.409Z,1.88
2022-08-21T12:00:14.172Z,1.70
2022-08-21T12:02:48.980Z,1.60
2022-08-21T12:05:39.720Z,1.98
2022-08-21T12:08:15.635Z,1.85
2022-08-21T12:10:59.423Z,1.98
2022-08-21T12:13:40.297Z,1.90
2022-08-21T12:16:10.347Z,1.65
2022-08-21T12:18:39.026Z,2.10
2022-08-21T12:21:27.920Z,2.22
2022-08-21T12:24:15.752Z,1.80
2022-08-21T12:26:50.944Z,1.70
2022-08-21T12:29:25.131Z,1.83
2022-08-21T12:34:38.164Z,1.75
2022-08-21T12:37:15.771Z,1.70
2022-08-21T12:39:48.145Z,2.00
2022-08-21T12:42:23.430Z,1.90
2022-08-21T12:45:19.661Z,1.60
2022-08-21T12:47:52.259Z,1.80
2022-08-21T12:50:41.761Z,2.28
2022-08-21T12:53:30.120Z,2.10
2022-08-21T12:56:02.215Z,2.15
2022-08-21T12:58:29.207Z,2.10
2022-08-21T13:01:02.101Z,1.98
2022-08-21T13:03:29.341Z,1.80
2022-08-21T13:05:56.301Z,1.80
2022-08-21T13:08:26.558Z,1.92
2022-08-21T13:11:13.721Z,2.10
2022-08-21T13:13:44.627Z,1.80
2022-08-21T13:16:25.253Z,1.52
2022-08-21T13:19:01.801Z,1.98
2022-08-21T13:21:32.211Z,1.65
2022-08-21T13:24:41.865Z,1.45
2022-08-21T13:27:26.481Z,2.00
2022-08-21T13:30:23.852Z,1.70
2022-08-21T13:32:57.531Z,1.73
2022-08-21T13:35:46.212Z,1.67
2022-08-21T13:38:13.141Z,1.70
2022-08-21T13:40:50.909Z,1.73
2022-08-21T13:43:22.012Z,1.75
2022-08-21T13:45:52.282Z,1.80
2022-08-21T13:48:20.325Z,1.60
2022-08-21T13:50:47.992Z,1.40
2022-08-21T13:53:42.124Z,1.45
2022-08-21T13:56:09.343Z,1.40
2022-08-21T13:58:45.629Z,1.70
2022-08-21T14:01:30.415Z,1.80
2022-08-21T14:04:23.698Z,1.70
2022-08-21T14:06:52.094Z,1.60
2022-08-21T14:09:34.853Z,1.50
2022-08-21T14:12:13.583Z,1.77
2022-08-21T14:14:51.380Z,2.10
2022-08-21T14:17:47.870Z,1.88
2022-08-21T14:20:34.837Z,2.10
2022-08-21T14:23:02.076Z,1.77
2022-08-21T14:25:44.009Z,1.60
2022-08-21T14:28:28.196Z,1.45
2022-08-21T14:30:57.056Z,1.60
2022-08-21T14:33:33.332Z,1.48
2022-08-21T14:36:02.844Z,1.48
2022-08-21T14:38:30.937Z,1.73
2022-08-21T14:41:01.490Z,1.88
2022-08-21T14:43:29.115Z,1.38
2022-08-21T14:45:56.732Z,1.52
2022-08-21T14:48:23.752Z,1.70
2022-08-21T14:50:50.570Z,1.60
2022-08-21T14:53:17.383Z,1.70
2022-08-21T14:56:16.736Z,1.83
2022-08-21T14:58:46.711Z,2.10
2022-08-21T15:01:15.437Z,1.90
2022-08-21T15:03:42.675Z,1.60
2022-08-21T15:06:10.000Z,1.52
2022-08-21T15:08:37.636Z,1.40
2022-08-21T15:11:12.142Z,1.35
2022-08-21T15:13:40.700Z,1.40
2022-08-21T15:16:10.409Z,1.63
2022-08-21T15:18:38.781Z,1.30
2022-08-21T15:21:06.455Z,1.52
2022-08-21T15:23:33.692Z,1.60
2022-08-21T15:26:00.598Z,1.60
2022-08-21T15:28:31.794Z,2.75
2022-08-21T15:31:01.306Z,2.03
2022-08-21T15:33:28.368Z,1.70
2022-08-21T15:35:55.241Z,1.80
2022-08-21T15:38:22.053Z,1.70
2022-08-21T15:40:52.461Z,1.60
2022-08-21T15:43:31.926Z,1.63
2022-08-21T15:46:02.202Z,1.48
2022-08-21T15:48:29.795Z,1.60
2022-08-21T15:50:56.627Z,1.30
2022-08-21T15:53:23.514Z,1.55
2022-08-21T15:55:50.551Z,1.35
2022-08-21T15:58:19.149Z,1.70
2022-08-21T16:00:47.947Z,1.20
2022-08-21T16:03:17.931Z,1.40
2022-08-21T16:05:45.735Z,1.50
2022-08-21T16:08:12.815Z,1.60
2022-08-21T16:10:40.134Z,1.83
2022-08-21T16:13:13.000Z,1.45
2022-08-21T16:15:40.915Z,1.50
2022-08-21T16:18:07.960Z,1.60
2022-08-21T16:20:34.826Z,1.60
2022-08-21T16:23:01.871Z,1.55
2022-08-21T16:25:29.105Z,1.42
2022-08-21T16:28:01.665Z,1.42
2022-08-21T16:30:29.510Z,1.60
2022-08-21T16:32:57.176Z,1.60
2022-08-21T16:35:25.165Z,1.63
2022-08-21T16:37:53.318Z,1.45
2022-08-21T16:40:23.129Z,1.35
2022-08-21T16:42:50.699Z,1.55
2022-08-21T16:45:21.049Z,1.70
2022-08-21T16:47:48.226Z,1.40
2022-08-21T16:50:19.349Z,1.48
2022-08-21T16:52:46.122Z,1.35
2022-08-21T16:55:12.956Z,1.50
2022-08-21T16:57:39.916Z,1.48
2022-08-21T17:00:11.957Z,1.38
2022-08-21T17:02:43.787Z,1.40
2022-08-21T17:05:13.979Z,1.80
2022-08-21T17:07:42.227Z,1.40
2022-08-21T17:10:10.421Z,1.70
2022-08-21T17:12:37.488Z,1.30
2022-08-21T17:15:15.839Z,1.50
2022-08-21T17:17:49.379Z,1.40
2022-08-21T17:20:16.709Z,1.55
2022-08-21T17:22:43.626Z,1.70
2022-08-21T17:25:11.176Z,1.50
2022-08-21T17:27:39.833Z,1.15
2022-08-21T17:30:07.819Z,1.40
2022-08-21T17:32:34.644Z,1.40
2022-08-21T17:35:02.582Z,1.30
2022-08-21T17:37:29.784Z,1.55
2022-08-21T17:39:57.282Z,1.70
2022-08-21T17:42:25.229Z,1.50
2022-08-21T17:44:52.104Z,1.58
2022-08-21T17:47:19.132Z,1.50
2022-08-21T17:49:45.952Z,1.50
2022-08-21T17:52:13.079Z,1.20
2022-08-21T17:54:41.504Z,1.30
2022-08-21T17:57:18.400Z,1.20
2022-08-21T17:59:45.761Z,1.60
2022-08-21T18:02:20.021Z,1.83
2022-08-21T18:04:50.696Z,1.27
2022-08-21T18:07:31.294Z,1.30
2022-08-21T18:10:02.942Z,1.52
2022-08-21T18:12:32.762Z,1.30
2022-08-21T18:15:00.920Z,1.63
2022-08-21T18:17:30.274Z,1.40
2022-08-21T18:19:59.566Z,1.27
2022-08-21T18:22:28.277Z,1.40
2022-08-21T18:24:55.616Z,1.40
2022-08-21T18:27:24.694Z,1.33
2022-08-21T18:29:57.235Z,1.50
2022-08-21T18:32:31.692Z,1.30
2022-08-21T18:35:01.923Z,1.27
2022-08-21T18:37:29.045Z,1.50
2022-08-21T18:39:56.387Z,1.35
2022-08-21T18:42:28.664Z,1.17
2022-08-21T18:45:00.880Z,1.55
2022-08-21T18:47:37.423Z,1.40
2022-08-21T18:50:10.655Z,1.33
2022-08-21T18:52:38.232Z,1.50
2022-08-21T18:55:13.215Z,1.42
2022-08-21T18:57:42.238Z,1.70
2022-08-21T19:00:26.740Z,1.33
2022-08-21T19:02:53.685Z,1.27
2022-08-21T19:05:23.042Z,1.48
2022-08-21T19:07:50.728Z,1.77
2022-08-21T19:10:27.509Z,1.38
2022-08-21T19:12:55.761Z,1.40
2022-08-21T19:15:23.315Z,1.20
2022-08-21T19:17:52.792Z,1.60
2022-08-21T19:20:36.385Z,1.30
2022-08-21T19:23:07.397Z,1.35
2022-08-21T19:25:35.199Z,1.30
2022-08-21T19:28:18.715Z,1.30
2022-08-21T19:30:54.898Z,1.45
2022-08-21T19:33:44.171Z,1.55
2022-08-21T19:36:12.972Z,1.30
2022-08-21T19:38:41.129Z,1.50
2022-08-21T19:41:11.312Z,1.33
2022-08-21T19:43:46.298Z,1.60
2022-08-21T19:46:20.798Z,1.70
2022-08-21T19:48:47.837Z,1.60
2022-08-21T19:51:15.622Z,1.60
2022-08-21T19:53:42.459Z,1.77
2022-08-21T19:56:17.812Z,1.73
2022-08-21T19:58:48.098Z,1.60
2022-08-21T20:01:19.848Z,1.50
2022-08-21T20:03:54.170Z,1.58
2022-08-21T20:06:24.366Z,1.52
2022-08-21T20:08:52.430Z,1.50
2022-08-21T20:11:26.223Z,1.92
2022-08-21T20:13:53.893Z,1.48
2022-08-21T20:16:21.705Z,1.25
2022-08-21T20:18:48.979Z,1.50
2022-08-21T20:21:15.917Z,1.27
2022-08-21T20:23:48.723Z,1.63
2022-08-21T20:26:16.270Z,1.35
2022-08-21T20:28:44.089Z,1.70
2022-08-21T20:31:11.156Z,1.48
2022-08-21T20:33:42.071Z,1.50
2022-08-21T20:36:09.754Z,1.35
2022-08-21T20:38:37.021Z,1.52
2022-08-21T20:41:17.851Z,1.38
2022-08-21T20:43:49.004Z,1.33
2022-08-21T20:46:21.394Z,1.60
2022-08-21T20:48:49.353Z,1.52
2022-08-21T20:51:44.668Z,1.48
2022-08-21T20:54:52.751Z,1.50
2022-08-21T20:57:43.505Z,1.50
2022-08-21T21:00:16.125Z,1.20
2022-08-21T21:02:49.961Z,1.55
2022-08-21T21:05:21.963Z,1.45
2022-08-21T21:08:01.129Z,1.52
2022-08-21T21:10:59.226Z,1.60
2022-08-21T21:13:43.074Z,1.20
2022-08-21T21:16:28.235Z,1.63
2022-08-21T21:19:20.771Z,1.50
2022-08-21T21:21:56.778Z,1.48
2022-08-21T21:24:36.707Z,1.58
2022-08-21T21:27:18.439Z,1.83
2022-08-21T21:29:54.279Z,1.90
2022-08-21T21:32:21.688Z,1.52
2022-08-21T21:34:51.083Z,1.42
2022-08-21T21:37:25.471Z,1.40
2022-08-21T21:42:36.760Z,1.58
2022-08-21T21:45:14.244Z,1.40
2022-08-21T21:47:51.042Z,1.58
2022-08-21T21:50:34.852Z,1.50
2022-08-21T21:53:26.290Z,1.50
2022-08-21T21:55:58.779Z,1.70
2022-08-21T21:58:32.091Z,1.65
2022-08-21T22:04:04.186Z,1.80
2022-08-21T22:06:45.098Z,1.50
2022-08-21T22:09:43.805Z,1.60
2022-08-21T22:13:10.244Z,1.60
2022-08-21T22:15:50.288Z,1.48
2022-08-21T22:18:22.235Z,1.38
2022-08-21T22:20:58.962Z,1.50
2022-08-21T22:23:33.842Z,1.60
2022-08-21T22:26:07.863Z,1.40
2022-08-21T22:31:15.104Z,1.35
2022-08-21T22:34:00.235Z,1.60
2022-08-21T22:36:31.722Z,1.35
2022-08-21T22:38:58.908Z,1.70
2022-08-21T22:41:31.039Z,1.48
2022-08-21T22:46:55.672Z,1.48
2022-08-21T22:49:41.635Z,1.48
2022-08-21T22:52:31.215Z,1.40
2022-08-21T22:55:01.954Z,1.58
2022-08-21T22:57:34.387Z,1.45
2022-08-21T23:00:15.760Z,1.20
2022-08-21T23:05:38.496Z,1.30
2022-08-21T23:08:38.244Z,1.42
2022-08-21T23:11:14.019Z,1.30
2022-08-21T23:13:44.708Z,1.10
2022-08-21T23:16:29.896Z,1.30
2022-08-21T23:19:18.422Z,1.15
2022-08-21T23:21:59.254Z,1.20
2022-08-21T23:24:33.509Z,1.55
2022-08-21T23:27:27.002Z,1.33
2022-08-21T23:30:12.346Z,1.33
2022-08-21T23:32:47.114Z,1.20
2022-08-21T23:36:02.740Z,1.48
2022-08-21T23:39:26.391Z,1.20
2022-08-21T23:42:11.716Z,1.40
2022-08-21T23:45:13.558Z,1.17
2022-08-21T23:48:06.776Z,1.40
2022-08-21T23:50:39.319Z,1.27
2022-08-21T23:53:33.789Z,1.30
2022-08-21T23:56:20.434Z,1.70
2022-08-21T23:59:19.614Z,1.23
